createdAt,value
2022-10-06T00:01:13.454Z,0.50
2022-10-06T00:03:41.786Z,0.77
2022-10-06T00:06:10.336Z,0.30
2022-10-06T00:08:39.375Z,0.40
2022-10-06T00:11:08.705Z,0.50
2022-10-06T00:13:37.283Z,0.40
2022-10-06T00:16:10.370Z,0.40
2022-10-06T00:18:38.734Z,0.40
2022-10-06T00:21:07.150Z,0.40
2022-10-06T00:23:35.410Z,0.35
2022-10-06T00:26:03.758Z,0.32
2022-10-06T00:28:32.420Z,0.45
2022-10-06T00:31:02.978Z,0.80
2022-10-06T00:33:32.743Z,0.30
2022-10-06T00:36:01.123Z,0.30
2022-10-06T00:38:29.942Z,0.40
2022-10-06T00:40:58.357Z,0.52
2022-10-06T00:43:45.367Z,0.30
2022-10-06T00:46:16.388Z,0.22
2022-10-06T00:48:47.115Z,0.30
2022-10-06T00:51:15.605Z,0.43
2022-10-06T00:53:44.155Z,0.70
2022-10-06T00:56:13.314Z,0.50
2022-10-06T00:58:41.584Z,0.55
2022-10-06T01:01:10.502Z,1.05
2022-10-06T01:03:41.077Z,0.40
2022-10-06T01:06:10.891Z,0.20
2022-10-06T01:08:39.725Z,0.73
2022-10-06T01:11:08.483Z,0.20
2022-10-06T01:13:36.844Z,0.57
2022-10-06T01:16:07.771Z,0.28
2022-10-06T01:18:36.835Z,0.30
2022-10-06T01:21:07.314Z,0.30
2022-10-06T01:23:37.286Z,0.73
2022-10-06T01:26:06.597Z,0.60
2022-10-06T01:28:35.036Z,0.20
2022-10-06T01:31:04.793Z,0.20
2022-10-06T01:33:33.186Z,0.50
2022-10-06T01:36:01.446Z,0.20
2022-10-06T01:38:29.958Z,0.32
2022-10-06T01:40:59.829Z,0.63
2022-10-06T01:43:28.115Z,0.25
2022-10-06T01:45:56.994Z,0.25
2022-10-06T01:48:26.261Z,0.25
2022-10-06T01:50:55.020Z,0.32
2022-10-06T01:53:23.607Z,0.68
2022-10-06T01:55:51.851Z,0.13
2022-10-06T01:58:21.495Z,0.47
2022-10-06T02:00:50.890Z,0.50
2022-10-06T02:03:19.158Z,0.47
2022-10-06T02:05:47.454Z,0.40
2022-10-06T02:08:16.091Z,0.45
2022-10-06T02:10:44.387Z,0.40
2022-10-06T02:13:12.693Z,0.20
2022-10-06T02:15:42.377Z,0.30
2022-10-06T02:18:10.805Z,0.25
2022-10-06T02:20:40.227Z,0.32
2022-10-06T02:23:08.528Z,0.30
2022-10-06T02:25:36.810Z,0.20
2022-10-06T02:28:05.184Z,0.40
2022-10-06T02:30:33.637Z,0.20
2022-10-06T02:33:03.331Z,0.20
2022-10-06T02:35:31.626Z,0.30
2022-10-06T02:37:59.927Z,0.13
2022-10-06T02:40:28.225Z,0.30
2022-10-06T02:42:56.501Z,0.32
2022-10-06T02:45:24.829Z,0.30
2022-10-06T02:47:53.546Z,0.60
2022-10-06T02:50:23.421Z,0.32
2022-10-06T02:52:51.692Z,0.40
2022-10-06T02:55:20.087Z,0.30
2022-10-06T02:57:48.369Z,0.30
2022-10-06T03:00:16.960Z,0.65
2022-10-06T03:02:45.320Z,0.38
2022-10-06T03:05:13.742Z,0.30
2022-10-06T03:07:43.376Z,0.40
2022-10-06T03:10:11.678Z,0.70
2022-10-06T03:12:39.992Z,0.32
2022-10-06T03:15:08.691Z,0.30
2022-10-06T03:17:36.957Z,0.40
2022-10-06T03:20:05.459Z,0.32
2022-10-06T03:22:34.066Z,0.80
2022-10-06T03:25:03.951Z,0.45
2022-10-06T03:27:32.341Z,0.20
2022-10-06T03:30:00.647Z,0.20
2022-10-06T03:32:28.954Z,0.60
2022-10-06T03:34:57.285Z,0.20
2022-10-06T03:37:25.665Z,0.15
2022-10-06T03:39:54.321Z,0.20
2022-10-06T03:42:24.006Z,0.30
2022-10-06T03:44:52.255Z,0.15
2022-10-06T03:47:20.531Z,0.52
2022-10-06T03:49:48.810Z,0.22
2022-10-06T03:52:17.604Z,0.40
2022-10-06T03:54:47.564Z,0.30
2022-10-06T03:57:15.848Z,0.85
2022-10-06T03:59:45.487Z,0.40
2022-10-06T04:02:13.857Z,0.30
2022-10-06T04:04:42.232Z,0.40
2022-10-06T04:07:10.875Z,0.10
2022-10-06T04:09:39.223Z,0.57
2022-10-06T04:12:07.515Z,0.25
2022-10-06T04:14:35.901Z,0.28
2022-10-06T04:17:05.749Z,0.40
2022-10-06T04:19:34.113Z,0.60
2022-10-06T04:22:02.388Z,0.40
2022-10-06T04:24:30.673Z,0.28
2022-10-06T04:27:18.973Z,0.15
2022-10-06T04:29:47.266Z,0.10
2022-10-06T04:32:16.922Z,0.63
2022-10-06T04:34:45.246Z,0.13
2022-10-06T04:37:13.525Z,1.13
2022-10-06T04:39:41.798Z,0.47
2022-10-06T04:42:10.068Z,0.20
2022-10-06T04:44:38.337Z,0.30
2022-10-06T04:47:06.672Z,0.30
2022-10-06T04:49:36.366Z,0.13
2022-10-06T04:52:05.607Z,0.50
2022-10-06T04:54:34.138Z,0.47
2022-10-06T04:57:02.511Z,0.40
2022-10-06T04:59:44.704Z,0.10
2022-10-06T05:02:13.580Z,0.22
2022-10-06T05:04:43.269Z,0.50
2022-10-06T05:07:11.559Z,0.40
2022-10-06T05:09:39.796Z,0.30
2022-10-06T05:12:10.177Z,0.30
2022-10-06T05:14:38.498Z,0.32
2022-10-06T05:17:06.825Z,0.35
2022-10-06T05:19:35.100Z,0.20
2022-10-06T05:22:04.842Z,0.30
2022-10-06T05:24:33.387Z,0.73
2022-10-06T05:27:03.881Z,0.40
2022-10-06T05:29:32.179Z,0.30
2022-10-06T05:32:00.572Z,0.43
2022-10-06T05:34:28.971Z,0.20
2022-10-06T05:36:57.259Z,0.75
2022-10-06T05:39:26.977Z,0.32
2022-10-06T05:41:55.635Z,0.40
2022-10-06T05:44:23.968Z,0.28
2022-10-06T05:46:52.262Z,0.20
2022-10-06T05:49:20.782Z,0.43
2022-10-06T05:51:49.039Z,0.47
2022-10-06T05:54:17.524Z,0.63
2022-10-06T05:56:47.149Z,0.28
2022-10-06T05:59:15.509Z,0.30
2022-10-06T06:01:44.685Z,0.73
2022-10-06T06:04:13.769Z,0.30
2022-10-06T06:06:42.794Z,0.60
2022-10-06T06:09:12.538Z,0.30
2022-10-06T06:11:41.543Z,0.20
2022-10-06T06:14:12.333Z,0.40
2022-10-06T06:16:40.677Z,0.30
2022-10-06T06:19:09.961Z,0.30
2022-10-06T06:21:38.286Z,0.65
2022-10-06T06:24:07.054Z,0.40
2022-10-06T06:26:36.756Z,0.35
2022-10-06T06:29:06.385Z,0.28
2022-10-06T06:31:36.971Z,0.32
2022-10-06T06:34:06.726Z,0.28
2022-10-06T06:36:36.898Z,0.32
2022-10-06T06:39:06.346Z,0.50
2022-10-06T06:41:35.982Z,0.30
2022-10-06T06:44:04.349Z,0.60
2022-10-06T06:46:32.856Z,0.52
2022-10-06T06:49:04.264Z,0.20
2022-10-06T06:51:34.565Z,0.43
2022-10-06T06:54:03.322Z,0.17
2022-10-06T06:56:35.245Z,0.45
2022-10-06T06:59:06.626Z,0.38
2022-10-06T07:01:34.969Z,0.80
2022-10-06T07:04:04.823Z,0.60
2022-10-06T07:06:33.416Z,0.60
2022-10-06T07:09:02.036Z,0.28
2022-10-06T07:11:31.212Z,0.40
2022-10-06T07:14:01.595Z,0.45
2022-10-06T07:16:47.858Z,0.40
2022-10-06T07:19:35.828Z,0.47
2022-10-06T07:22:23.228Z,0.47
2022-10-06T07:25:11.585Z,0.77
2022-10-06T07:27:42.404Z,0.68
2022-10-06T07:30:11.816Z,1.30
2022-10-06T07:32:40.171Z,0.50
2022-10-06T07:35:10.404Z,0.40
2022-10-06T07:37:38.833Z,0.57
2022-10-06T07:40:08.453Z,1.00
2022-10-06T07:42:48.237Z,0.30
2022-10-06T07:45:35.507Z,0.50
2022-10-06T07:48:04.341Z,0.30
2022-10-06T07:50:34.344Z,0.40
2022-10-06T07:53:04.924Z,0.47
2022-10-06T07:55:33.558Z,0.40
2022-10-06T07:58:01.878Z,0.50
2022-10-06T08:00:30.371Z,0.35
2022-10-06T08:02:58.837Z,0.60
2022-10-06T08:05:27.178Z,1.23
2022-10-06T08:07:58.619Z,0.43
2022-10-06T08:10:27.351Z,0.38
2022-10-06T08:12:55.896Z,0.70
2022-10-06T08:15:24.271Z,0.63
2022-10-06T08:17:53.882Z,1.02
2022-10-06T08:20:24.188Z,0.50
2022-10-06T08:22:52.530Z,1.02
2022-10-06T08:25:22.339Z,1.13
2022-10-06T08:27:53.553Z,1.00
2022-10-06T08:30:27.264Z,0.98
2022-10-06T08:32:55.808Z,0.93
2022-10-06T08:35:24.523Z,1.13
2022-10-06T08:37:53.350Z,0.98
2022-10-06T08:40:23.350Z,1.10
2022-10-06T08:42:52.979Z,0.98
2022-10-06T08:45:24.353Z,0.70
2022-10-06T08:47:57.073Z,0.70
2022-10-06T08:50:27.539Z,0.43
2022-10-06T08:52:58.879Z,0.65
2022-10-06T08:55:36.326Z,0.60
2022-10-06T08:58:20.432Z,0.32
2022-10-06T09:00:48.912Z,0.50
2022-10-06T09:03:23.128Z,0.40
2022-10-06T09:05:53.026Z,0.43
2022-10-06T09:08:31.313Z,0.40
2022-10-06T09:11:04.714Z,0.80
2022-10-06T09:13:34.561Z,0.50
2022-10-06T09:16:07.626Z,0.55
2022-10-06T09:19:03.557Z,1.00
2022-10-06T09:21:30.695Z,0.50
2022-10-06T09:24:03.849Z,0.80
2022-10-06T09:26:34.732Z,0.57
2022-10-06T09:29:03.575Z,0.90
2022-10-06T09:31:33.375Z,0.60
2022-10-06T09:34:04.934Z,0.55
2022-10-06T09:36:33.844Z,0.40
2022-10-06T09:39:02.206Z,0.73
2022-10-06T09:41:32.063Z,0.77
2022-10-06T09:44:03.415Z,0.40
2022-10-06T09:46:33.795Z,0.63
2022-10-06T09:49:10.171Z,0.30
2022-10-06T09:51:38.568Z,0.63
2022-10-06T09:54:14.257Z,0.65
2022-10-06T09:56:43.256Z,1.10
2022-10-06T09:59:21.226Z,0.73
2022-10-06T10:01:53.554Z,0.90
2022-10-06T10:04:25.733Z,0.40
2022-10-06T10:06:54.507Z,1.05
2022-10-06T10:09:26.024Z,0.45
2022-10-06T10:12:28.705Z,0.52
2022-10-06T10:14:59.440Z,0.63
2022-10-06T10:17:39.408Z,0.75
2022-10-06T10:20:24.908Z,0.57
2022-10-06T10:22:54.279Z,0.52
2022-10-06T10:25:31.746Z,0.70
2022-10-06T10:28:03.871Z,0.50
2022-10-06T10:30:33.941Z,0.90
2022-10-06T10:33:06.144Z,0.50
2022-10-06T10:35:37.255Z,0.47
2022-10-06T10:38:13.763Z,0.73
2022-10-06T10:40:46.025Z,0.30
2022-10-06T10:43:18.785Z,0.65
2022-10-06T10:45:52.656Z,0.60
2022-10-06T10:48:24.210Z,0.63
2022-10-06T10:50:56.055Z,0.98
2022-10-06T10:53:27.876Z,0.80
2022-10-06T10:55:56.636Z,0.60
2022-10-06T10:58:29.961Z,0.60
2022-10-06T11:01:02.521Z,0.52
2022-10-06T11:03:31.040Z,0.50
2022-10-06T11:06:07.156Z,0.85
2022-10-06T11:08:39.371Z,0.65
2022-10-06T11:11:11.842Z,0.43
2022-10-06T11:13:41.832Z,1.05
2022-10-06T11:16:17.427Z,0.68
2022-10-06T11:18:54.031Z,1.00
2022-10-06T11:21:25.496Z,0.40
2022-10-06T11:23:54.579Z,0.55
2022-10-06T11:26:32.010Z,0.45
2022-10-06T11:29:02.958Z,0.68
2022-10-06T11:31:36.189Z,0.80
2022-10-06T11:34:06.432Z,0.95
2022-10-06T11:36:39.988Z,0.47
2022-10-06T11:39:13.896Z,0.38
2022-10-06T11:41:45.328Z,0.65
2022-10-06T11:44:18.809Z,0.55
2022-10-06T11:46:51.887Z,0.65
2022-10-06T11:49:52.067Z,0.70
2022-10-06T11:52:39.304Z,0.60
2022-10-06T11:55:14.942Z,0.47
2022-10-06T11:58:05.360Z,0.40
2022-10-06T12:00:42.969Z,0.57
2022-10-06T12:03:29.069Z,0.68
2022-10-06T12:05:59.026Z,0.77
2022-10-06T12:08:36.925Z,0.35
2022-10-06T12:11:05.853Z,0.40
2022-10-06T12:14:44.180Z,0.55
2022-10-06T12:17:08.559Z,0.60
2022-10-06T12:19:21.989Z,0.50
2022-10-06T12:22:01.829Z,0.80
2022-10-06T12:24:34.533Z,0.63
2022-10-06T12:27:25.009Z,0.50
2022-10-06T12:29:58.309Z,0.55
2022-10-06T12:32:36.468Z,0.70
2022-10-06T12:35:14.476Z,0.60
2022-10-06T12:37:50.176Z,0.50
2022-10-06T12:40:40.425Z,0.60
2022-10-06T12:43:12.861Z,0.52
2022-10-06T12:45:46.092Z,0.65
2022-10-06T12:48:19.846Z,0.80
2022-10-06T12:50:50.387Z,0.75
2022-10-06T12:53:22.792Z,0.70
2022-10-06T12:55:54.208Z,0.50
2022-10-06T12:58:28.846Z,0.50
2022-10-06T13:01:01.834Z,0.50
2022-10-06T13:03:31.024Z,0.80
2022-10-06T13:06:01.036Z,0.40
2022-10-06T13:08:32.500Z,0.60
2022-10-06T13:11:14.069Z,0.52
2022-10-06T13:13:50.769Z,0.55
2022-10-06T13:16:22.352Z,0.50
2022-10-06T13:18:51.269Z,0.80
2022-10-06T13:21:19.853Z,0.60
2022-10-06T13:23:50.992Z,0.68
2022-10-06T13:26:22.803Z,0.40
2022-10-06T13:28:52.170Z,0.63
2022-10-06T13:31:22.209Z,0.63
2022-10-06T13:33:52.889Z,0.38
2022-10-06T13:36:23.711Z,0.40
2022-10-06T13:38:54.489Z,0.75
2022-10-06T13:41:25.720Z,0.70
2022-10-06T13:43:56.404Z,0.70
2022-10-06T13:46:27.257Z,0.82
2022-10-06T13:48:59.775Z,0.60
2022-10-06T13:51:30.395Z,0.68
2022-10-06T13:54:01.191Z,0.65
2022-10-06T13:56:39.785Z,0.55
2022-10-06T13:59:28.502Z,0.60
2022-10-06T14:01:57.255Z,0.88
2022-10-06T14:04:25.947Z,0.80
2022-10-06T14:06:55.729Z,0.70
2022-10-06T14:09:26.847Z,0.60
2022-10-06T14:11:56.173Z,0.82
2022-10-06T14:14:25.202Z,0.32
2022-10-06T14:16:54.868Z,0.63
2022-10-06T14:19:34.132Z,0.52
2022-10-06T14:22:03.143Z,0.63
2022-10-06T14:24:37.612Z,0.55
2022-10-06T14:27:07.752Z,0.82
2022-10-06T14:29:38.181Z,0.57
2022-10-06T14:32:11.073Z,0.75
2022-10-06T14:34:40.685Z,1.02
2022-10-06T14:37:12.227Z,0.60
2022-10-06T14:39:42.489Z,0.75
2022-10-06T14:42:11.483Z,0.60
2022-10-06T14:44:40.337Z,0.35
2022-10-06T14:47:09.614Z,0.60
2022-10-06T14:49:38.544Z,0.80
2022-10-06T14:52:10.493Z,0.55
2022-10-06T14:54:39.144Z,0.75
2022-10-06T14:57:10.000Z,0.50
2022-10-06T14:59:38.650Z,0.68
2022-10-06T15:02:07.993Z,0.47
2022-10-06T15:04:36.693Z,0.55
2022-10-06T15:07:23.118Z,0.55
2022-10-06T15:09:51.765Z,0.98
2022-10-06T15:12:21.496Z,0.38
2022-10-06T15:14:50.074Z,0.40
2022-10-06T15:17:18.577Z,0.40
2022-10-06T15:19:47.147Z,0.40
2022-10-06T15:22:15.472Z,0.60
2022-10-06T15:24:48.656Z,0.90
2022-10-06T15:27:49.264Z,0.57
2022-10-06T15:30:19.805Z,1.45
2022-10-06T15:32:49.847Z,0.30
2022-10-06T15:35:18.441Z,0.50
2022-10-06T15:37:47.413Z,0.32
2022-10-06T15:40:15.757Z,0.77
2022-10-06T15:42:44.121Z,0.47
2022-10-06T15:45:13.284Z,0.50
2022-10-06T15:47:43.141Z,0.95
2022-10-06T15:50:16.461Z,0.50
2022-10-06T15:52:47.061Z,0.50
2022-10-06T15:55:15.448Z,0.50
2022-10-06T15:57:43.763Z,0.43
2022-10-06T16:00:13.093Z,1.13
2022-10-06T16:02:43.013Z,0.70
2022-10-06T16:05:46.866Z,0.70
2022-10-06T16:08:15.645Z,0.45
2022-10-06T16:10:43.983Z,0.65
2022-10-06T16:13:12.449Z,0.57
2022-10-06T16:15:40.783Z,0.77
2022-10-06T16:18:10.712Z,0.60
2022-10-06T16:20:39.030Z,0.30
2022-10-06T16:23:07.404Z,0.50
2022-10-06T16:25:35.714Z,0.50
2022-10-06T16:28:04.148Z,0.57
2022-10-06T16:30:32.572Z,0.47
2022-10-06T16:33:03.112Z,0.28
2022-10-06T16:35:32.923Z,0.32
2022-10-06T16:38:01.345Z,0.50
2022-10-06T16:40:29.669Z,1.02
2022-10-06T16:42:58.006Z,0.50
2022-10-06T16:45:26.393Z,0.52
2022-10-06T16:47:54.730Z,0.38
2022-10-06T16:50:23.273Z,0.40
2022-10-06T16:52:53.009Z,0.40
2022-10-06T16:55:21.296Z,0.60
2022-10-06T16:57:49.586Z,0.70
2022-10-06T17:00:18.447Z,0.77
2022-10-06T17:02:46.754Z,0.75
2022-10-06T17:05:15.142Z,0.85
2022-10-06T17:07:43.685Z,0.30
2022-10-06T17:10:20.645Z,0.80
2022-10-06T17:12:49.444Z,0.30
2022-10-06T17:15:17.860Z,0.60
2022-10-06T17:17:46.245Z,0.70
2022-10-06T17:20:16.877Z,0.40
2022-10-06T17:22:45.300Z,0.80
2022-10-06T17:25:16.037Z,0.70
2022-10-06T17:27:44.632Z,0.88
2022-10-06T17:30:15.386Z,0.70
2022-10-06T17:32:44.672Z,0.60
2022-10-06T17:35:13.573Z,0.70
2022-10-06T17:37:42.457Z,0.88
2022-10-06T17:40:11.550Z,0.90
2022-10-06T17:42:41.870Z,0.75
2022-10-06T17:45:11.108Z,0.70
2022-10-06T17:47:40.216Z,1.27
2022-10-06T17:50:09.309Z,0.70
2022-10-06T17:52:38.949Z,0.30
2022-10-06T17:55:09.073Z,0.68
2022-10-06T17:57:37.894Z,1.25
2022-10-06T18:00:09.995Z,0.95
2022-10-06T18:02:39.603Z,0.52
2022-10-06T18:05:08.622Z,0.55
2022-10-06T18:07:38.414Z,0.73
2022-10-06T18:10:24.645Z,0.57
2022-10-06T18:12:53.174Z,1.13
2022-10-06T18:15:23.021Z,0.50
2022-10-06T18:17:52.333Z,0.82
2022-10-06T18:20:21.624Z,0.75
2022-10-06T18:22:50.447Z,1.25
2022-10-06T18:25:24.467Z,1.10
2022-10-06T18:27:55.209Z,0.68
2022-10-06T18:30:29.400Z,0.68
2022-10-06T18:36:09.154Z,1.00
2022-10-06T18:38:42.550Z,0.57
2022-10-06T18:41:12.813Z,0.80
2022-10-06T18:43:41.542Z,0.98
2022-10-06T18:46:30.523Z,1.13
2022-10-06T18:48:59.990Z,0.80
2022-10-06T18:51:32.204Z,1.30
2022-10-06T18:54:02.666Z,1.42
2022-10-06T18:56:32.831Z,0.70
2022-10-06T18:59:01.859Z,1.00
2022-10-06T19:01:32.361Z,1.23
2022-10-06T19:04:02.574Z,1.33
2022-10-06T19:06:35.703Z,0.40
2022-10-06T19:09:05.001Z,1.13
2022-10-06T19:11:45.979Z,1.40
2022-10-06T19:14:15.122Z,0.93
2022-10-06T19:16:45.166Z,0.73
2022-10-06T19:19:14.473Z,0.88
2022-10-06T19:21:43.983Z,0.88
2022-10-06T19:24:14.003Z,1.10
2022-10-06T19:26:45.982Z,0.93
2022-10-06T19:29:15.674Z,1.08
2022-10-06T19:31:48.053Z,0.70
2022-10-06T19:34:17.935Z,0.82
2022-10-06T19:36:52.958Z,1.02
2022-10-06T19:42:07.421Z,1.00
2022-10-06T19:44:41.983Z,1.08
2022-10-06T19:47:14.767Z,0.95
2022-10-06T19:49:43.716Z,1.15
2022-10-06T19:52:12.868Z,1.20
2022-10-06T19:54:42.053Z,1.13
2022-10-06T19:57:11.516Z,0.90
2022-10-06T19:59:40.274Z,1.08
2022-10-06T20:02:10.170Z,1.23
2022-10-06T20:04:40.112Z,1.00
2022-10-06T20:07:08.954Z,0.90
2022-10-06T20:09:37.385Z,1.63
2022-10-06T20:12:06.189Z,0.98
2022-10-06T20:14:34.643Z,1.15
2022-10-06T20:17:03.174Z,1.10
2022-10-06T20:19:31.847Z,0.95
2022-10-06T20:22:01.610Z,1.05
2022-10-06T20:24:31.824Z,1.00
2022-10-06T20:27:00.263Z,1.00
2022-10-06T20:29:28.683Z,1.27
2022-10-06T20:31:58.922Z,1.08
2022-10-06T20:34:31.604Z,1.13
2022-10-06T20:37:02.285Z,0.82
2022-10-06T20:39:48.784Z,0.70
2022-10-06T20:42:17.112Z,0.93
2022-10-06T20:44:45.829Z,1.08
2022-10-06T20:47:14.663Z,0.85
2022-10-06T20:49:43.596Z,0.93
2022-10-06T20:52:14.983Z,1.45
2022-10-06T20:54:44.193Z,1.02
2022-10-06T20:57:13.195Z,0.75
2022-10-06T20:59:41.839Z,1.20
2022-10-06T21:02:11.617Z,0.82
2022-10-06T21:04:43.391Z,1.33
2022-10-06T21:07:13.136Z,0.80
2022-10-06T21:09:41.568Z,0.57
2022-10-06T21:12:09.908Z,1.23
2022-10-06T21:14:42.192Z,0.75
2022-10-06T21:17:10.655Z,1.17
2022-10-06T21:19:39.022Z,0.70
2022-10-06T21:22:07.362Z,1.10
2022-10-06T21:24:37.001Z,0.82
2022-10-06T21:27:05.453Z,1.25
2022-10-06T21:29:33.759Z,1.38
2022-10-06T21:32:02.055Z,1.05
2022-10-06T21:34:30.468Z,0.90
2022-10-06T21:36:58.713Z,1.00
2022-10-06T21:39:27.322Z,1.25
2022-10-06T21:41:57.421Z,1.23
2022-10-06T21:44:25.850Z,1.48
2022-10-06T21:46:54.953Z,1.10
2022-10-06T21:49:24.272Z,1.75
2022-10-06T21:51:53.409Z,1.90
2022-10-06T21:54:22.081Z,1.05
2022-10-06T21:56:50.605Z,1.63
2022-10-06T21:59:20.316Z,1.38
2022-10-06T22:01:50.610Z,1.10
2022-10-06T22:04:19.249Z,1.27
2022-10-06T22:06:50.107Z,1.33
2022-10-06T22:09:19.581Z,1.90
2022-10-06T22:11:47.954Z,1.20
2022-10-06T22:14:17.831Z,1.35
2022-10-06T22:16:47.695Z,1.33
2022-10-06T22:19:17.742Z,1.00
2022-10-06T22:21:47.383Z,1.20
2022-10-06T22:24:16.827Z,1.48
2022-10-06T22:26:45.403Z,1.30
2022-10-06T22:29:14.886Z,1.00
2022-10-06T22:31:44.845Z,1.20
2022-10-06T22:34:15.675Z,1.58
2022-10-06T22:36:44.122Z,1.63
2022-10-06T22:39:12.501Z,1.60
2022-10-06T22:41:40.871Z,1.90
2022-10-06T22:44:09.165Z,1.65
2022-10-06T22:46:38.083Z,1.10
2022-10-06T22:49:06.749Z,0.98
2022-10-06T22:51:36.586Z,1.30
2022-10-06T22:54:05.370Z,1.23
2022-10-06T22:56:34.440Z,1.48
2022-10-06T22:59:03.017Z,1.17
2022-10-06T23:01:31.799Z,1.33
2022-10-06T23:04:00.135Z,1.15
2022-10-06T23:06:31.372Z,1.30
2022-10-06T23:09:01.283Z,1.02
2022-10-06T23:11:29.955Z,0.90
2022-10-06T23:13:58.762Z,0.85
2022-10-06T23:16:27.230Z,0.73
2022-10-06T23:18:55.955Z,0.90
2022-10-06T23:21:27.375Z,1.25
2022-10-06T23:23:56.524Z,0.82
2022-10-06T23:26:26.446Z,1.63
2022-10-06T23:28:55.658Z,1.30
2022-10-06T23:31:24.479Z,1.20
2022-10-06T23:33:52.839Z,1.40
2022-10-06T23:36:22.162Z,0.75
2022-10-06T23:38:50.522Z,0.73
2022-10-06T23:41:18.893Z,1.70
2022-10-06T23:43:48.711Z,1.20
2022-10-06T23:46:17.050Z,1.13
2022-10-06T23:48:45.453Z,1.52
2022-10-06T23:51:15.160Z,1.00
2022-10-06T23:53:43.956Z,1.60
2022-10-06T23:56:12.861Z,1.13
2022-10-06T23:58:42.675Z,1.35
